Time;durP1;ratioP1;P1;durP2;ratioP2;P2;SDS_P1;SDS_P2;PMS_P1;PMS_P2;Temp;Humidity;BMP_temperature;BMP_pressure;BME280_temperature;BME280_humidity;BME280_pressure;Samples;Min_cycle;Max_cycle;Signal;HPM_P1;HPM_P2
2022/10/14 00:01:30;;;;;;;;;;;19.70;59.50;;;;;;5053499;28;19975;-76
2022/10/14 00:03:55;;;;;;;;;;;19.70;59.50;;;;;;5053306;28;19928;-76
2022/10/14 00:06:23;;;;;;;;;;;19.70;59.40;;;;;;5053191;28;20039;-69
2022/10/14 00:08:51;;;;;;;;;;;19.70;59.50;;;;;;5051946;28;19920;-76
2022/10/14 00:11:19;;;;;;;;;;;19.60;59.40;;;;;;5051407;28;19929;-75
2022/10/14 00:13:44;;;;;;;;;;;19.70;59.40;;;;;;5051820;28;19925;-69
2022/10/14 00:16:14;;;;;;;;;;;19.70;59.50;;;;;;5053130;28;19966;-76
2022/10/14 00:18:39;;;;;;;;;;;19.70;59.50;;;;;;5052199;28;19920;-76
2022/10/14 00:21:05;;;;;;;;;;;19.60;59.40;;;;;;5051631;28;20451;-76
2022/10/14 00:23:31;;;;;;;;;;;19.60;59.40;;;;;;5052959;28;19927;-76
2022/10/14 00:25:56;;;;;;;;;;;19.60;59.40;;;;;;5052795;28;19928;-76
2022/10/14 00:28:22;;;;;;;;;;;19.60;59.40;;;;;;5051583;28;20369;-76
2022/10/14 00:30:55;;;;;;;;;;;19.60;59.40;;;;;;5052697;28;19967;-75
2022/10/14 00:33:21;;;;;;;;;;;19.60;59.40;;;;;;5051529;28;19925;-77
2022/10/14 00:38:35;;;;;;;;;;;19.60;59.40;;;;;;5110236;27;19919;-75
2022/10/14 00:41:01;;;;;;;;;;;19.60;59.40;;;;;;5092000;28;20011;-75
2022/10/14 00:43:27;;;;;;;;;;;19.60;59.40;;;;;;5091852;28;20418;-76
2022/10/14 00:45:53;;;;;;;;;;;19.60;59.40;;;;;;5091820;28;19956;-75
2022/10/14 00:48:20;;;;;;;;;;;19.60;59.40;;;;;;5110108;28;19920;-75
2022/10/14 00:50:47;;;;;;;;;;;19.60;59.40;;;;;;5091715;28;19920;-76
2022/10/14 00:53:13;;;;;;;;;;;19.60;59.50;;;;;;5091864;28;19920;-76
2022/10/14 00:55:39;;;;;;;;;;;19.60;59.50;;;;;;5091670;28;19924;-75
2022/10/14 00:58:08;;;;;;;;;;;19.60;60.10;;;;;;5109733;28;19967;-75
2022/10/14 01:00:34;;;;;;;;;;;19.50;59.40;;;;;;5091550;28;19924;-75
2022/10/14 01:02:59;;;;;;;;;;;19.50;59.40;;;;;;5091763;28;20002;-75
2022/10/14 01:05:30;;;;;;;;;;;19.50;59.40;;;;;;5109763;28;19927;-69
2022/10/14 01:10:41;;;;;;;;;;;19.50;59.40;;;;;;5110335;27;19919;-75
2022/10/14 01:13:19;;;;;;;;;;;19.50;59.40;;;;;;5108939;28;19920;-75
2022/10/14 01:16:04;;;;;;;;;;;19.50;59.40;;;;;;5109243;28;19919;-76
2022/10/14 01:18:50;;;;;;;;;;;19.50;59.40;;;;;;5108856;28;20244;-75
2022/10/14 01:21:36;;;;;;;;;;;19.50;59.40;;;;;;5109248;28;19977;-69
2022/10/14 01:32:09;;;;;;;;;;;19.50;59.40;;;;;;5136232;27;1850865;-75
2022/10/14 01:34:39;;;;;;;;;;;19.40;59.30;;;;;;5174897;27;19925;-72
2022/10/14 01:37:10;;;;;;;;;;;19.50;59.40;;;;;;5174348;27;19962;-76
2022/10/14 01:39:40;;;;;;;;;;;19.50;59.40;;;;;;5174678;27;19919;-76
2022/10/14 01:42:08;;;;;;;;;;;19.40;59.40;;;;;;5174259;27;19926;-76
2022/10/14 01:44:37;;;;;;;;;;;19.50;59.40;;;;;;5174254;27;20374;-75
2022/10/14 01:47:04;;;;;;;;;;;19.40;59.40;;;;;;5174509;27;20021;-75
2022/10/14 01:49:40;;;;;;;;;;;19.40;59.40;;;;;;5174202;27;19950;-76
2022/10/14 01:52:07;;;;;;;;;;;19.40;59.40;;;;;;5174375;27;19923;-76
2022/10/14 01:54:35;;;;;;;;;;;19.40;59.40;;;;;;5192972;27;19919;-76
2022/10/14 01:57:02;;;;;;;;;;;19.40;59.40;;;;;;5192814;27;20009;-75
2022/10/14 01:59:29;;;;;;;;;;;19.40;59.30;;;;;;5173865;27;19967;-76
2022/10/14 02:01:55;;;;;;;;;;;19.40;59.40;;;;;;5192735;27;19922;-76
2022/10/14 02:04:21;;;;;;;;;;;19.40;59.40;;;;;;5174088;27;20322;-76
2022/10/14 02:06:54;;;;;;;;;;;19.40;59.40;;;;;;5173730;27;20448;-76
2022/10/14 02:09:24;;;;;;;;;;;19.40;59.40;;;;;;5192540;27;19976;-76
2022/10/14 02:12:09;;;;;;;;;;;19.40;59.40;;;;;;5192553;27;19923;-75
2022/10/14 02:14:41;;;;;;;;;;;19.40;59.40;;;;;;5173368;27;19919;-76
2022/10/14 02:19:51;;;;;;;;;;;19.40;59.40;;;;;;5089824;28;19912;-76
2022/10/14 02:22:24;;;;;;;;;;;19.40;59.40;;;;;;5088868;28;20022;-76
2022/10/14 02:24:51;;;;;;;;;;;19.40;59.40;;;;;;5089743;28;20296;-76
2022/10/14 02:27:18;;;;;;;;;;;19.30;59.30;;;;;;5089790;28;20019;-76
2022/10/14 02:29:45;;;;;;;;;;;19.40;59.40;;;;;;5088628;28;20265;-76
2022/10/14 02:32:12;;;;;;;;;;;19.40;59.50;;;;;;5088682;28;19927;-75
2022/10/14 02:34:38;;;;;;;;;;;19.40;59.60;;;;;;5088179;28;20345;-75
2022/10/14 02:37:05;;;;;;;;;;;19.30;59.40;;;;;;5088272;28;20271;-75
2022/10/14 02:39:34;;;;;;;;;;;19.40;59.40;;;;;;5088184;28;19985;-74
2022/10/14 02:42:00;;;;;;;;;;;19.40;59.40;;;;;;5088434;28;19920;-75
2022/10/14 02:44:25;;;;;;;;;;;19.60;59.50;;;;;;5088102;28;19921;-70
2022/10/14 02:46:53;;;;;;;;;;;19.60;59.50;;;;;;5089623;28;19920;-75
2022/10/14 02:49:18;;;;;;;;;;;19.70;59.40;;;;;;5087569;28;20332;-75
2022/10/14 02:51:44;;;;;;;;;;;19.90;59.30;;;;;;5087898;28;19971;-76
2022/10/14 02:54:09;;;;;;;;;;;20.00;59.10;;;;;;5088015;28;19981;-76
2022/10/14 02:56:35;;;;;;;;;;;20.10;59.10;;;;;;5087961;28;20015;-76
2022/10/14 02:59:00;;;;;;;;;;;20.30;58.70;;;;;;5087975;28;20015;-75
2022/10/14 03:01:26;;;;;;;;;;;20.40;58.50;;;;;;5087868;28;20065;-75
2022/10/14 03:03:51;;;;;;;;;;;20.60;58.20;;;;;;5087842;28;19928;-76
2022/10/14 03:06:17;;;;;;;;;;;20.70;58.00;;;;;;5088989;28;19921;-76
2022/10/14 03:08:42;;;;;;;;;;;20.80;57.80;;;;;;5089125;28;20100;-76
2022/10/14 03:11:08;;;;;;;;;;;20.90;57.60;;;;;;5087668;28;20284;-76
2022/10/14 03:13:33;;;;;;;;;;;21.00;57.40;;;;;;5088930;28;19925;-70
2022/10/14 03:15:59;;;;;;;;;;;21.00;57.10;;;;;;5088526;28;19927;-76
2022/10/14 03:18:25;;;;;;;;;;;21.10;56.90;;;;;;5086076;28;19928;-76
2022/10/14 03:20:50;;;;;;;;;;;21.20;56.80;;;;;;5087165;28;19926;-77
2022/10/14 03:23:16;;;;;;;;;;;21.20;56.70;;;;;;5087672;28;20014;-76
2022/10/14 03:25:43;;;;;;;;;;;21.10;56.60;;;;;;5088762;28;20390;-76
2022/10/14 03:28:09;;;;;;;;;;;21.20;56.50;;;;;;5087579;28;19927;-77
2022/10/14 03:30:34;;;;;;;;;;;21.20;56.50;;;;;;5076871;28;20014;-76
2022/10/14 03:33:00;;;;;;;;;;;21.20;56.40;;;;;;5073986;28;19920;-76
2022/10/14 03:35:25;;;;;;;;;;;21.30;56.40;;;;;;5074369;28;20357;-76
2022/10/14 03:37:52;;;;;;;;;;;21.30;56.30;;;;;;5073544;28;20293;-76
2022/10/14 03:40:18;;;;;;;;;;;21.30;56.30;;;;;;5073271;28;19921;-76
2022/10/14 03:42:43;;;;;;;;;;;21.30;56.20;;;;;;5074568;28;20376;-76
2022/10/14 03:45:09;;;;;;;;;;;21.30;56.20;;;;;;5074163;28;20322;-76
2022/10/14 03:47:34;;;;;;;;;;;21.30;56.10;;;;;;5074647;28;20007;-76
2022/10/14 03:50:01;;;;;;;;;;;21.30;56.10;;;;;;5073554;28;19924;-76
2022/10/14 03:52:27;;;;;;;;;;;21.40;56.10;;;;;;5074790;28;19920;-76
2022/10/14 03:54:52;;;;;;;;;;;21.30;56.00;;;;;;5073709;28;20450;-69
2022/10/14 03:57:18;;;;;;;;;;;21.40;55.90;;;;;;5073366;28;19920;-76
2022/10/14 03:59:43;;;;;;;;;;;21.40;55.90;;;;;;5074420;28;19932;-76
2022/10/14 04:02:09;;;;;;;;;;;21.40;55.80;;;;;;5073547;28;19920;-70
2022/10/14 04:04:34;;;;;;;;;;;21.40;55.80;;;;;;5073445;28;19920;-77
2022/10/14 04:07:00;;;;;;;;;;;21.40;55.80;;;;;;5073196;28;20411;-76
2022/10/14 04:09:27;;;;;;;;;;;21.40;55.70;;;;;;5073022;28;19924;-76
2022/10/14 04:11:54;;;;;;;;;;;21.50;55.70;;;;;;5073061;28;19947;-76
2022/10/14 04:14:19;;;;;;;;;;;21.40;55.60;;;;;;5071540;28;20404;-76
2022/10/14 04:16:45;;;;;;;;;;;21.50;55.60;;;;;;5074236;28;19936;-76
2022/10/14 04:19:10;;;;;;;;;;;21.50;55.60;;;;;;5089158;28;19928;-76
2022/10/14 04:21:36;;;;;;;;;;;21.50;55.60;;;;;;5076503;28;20291;-76
2022/10/14 04:24:01;;;;;;;;;;;21.50;55.60;;;;;;5076371;28;20382;-76
2022/10/14 04:26:27;;;;;;;;;;;21.50;55.50;;;;;;5094412;28;19928;-76
2022/10/14 04:28:53;;;;;;;;;;;21.50;55.40;;;;;;5076047;28;20387;-76
2022/10/14 04:31:18;;;;;;;;;;;21.50;55.40;;;;;;5076434;28;19920;-76
2022/10/14 04:33:44;;;;;;;;;;;21.50;55.40;;;;;;5075955;28;19927;-75
2022/10/14 04:36:09;;;;;;;;;;;21.60;55.40;;;;;;5075860;28;19931;-76
2022/10/14 04:38:35;;;;;;;;;;;21.60;55.30;;;;;;5075985;28;19924;-76
2022/10/14 04:41:00;;;;;;;;;;;21.60;55.30;;;;;;5075036;28;20375;-70
2022/10/14 04:43:26;;;;;;;;;;;21.60;55.30;;;;;;5093673;28;19926;-76
2022/10/14 04:45:52;;;;;;;;;;;21.60;55.30;;;;;;5075222;28;19966;-76
2022/10/14 04:48:17;;;;;;;;;;;21.50;55.20;;;;;;5075384;28;19927;-70
2022/10/14 04:50:43;;;;;;;;;;;21.60;55.20;;;;;;5093956;28;19924;-76
2022/10/14 04:53:09;;;;;;;;;;;21.60;55.60;;;;;;5093098;28;20383;-74
2022/10/14 04:55:34;;;;;;;;;;;21.60;55.10;;;;;;5075636;28;19924;-76
2022/10/14 04:58:00;;;;;;;;;;;21.60;55.20;;;;;;5075586;28;20298;-76
2022/10/14 05:00:25;;;;;;;;;;;21.60;55.10;;;;;;5093652;28;20280;-76
2022/10/14 05:02:51;;;;;;;;;;;21.60;55.10;;;;;;5093602;28;19927;-76
2022/10/14 05:05:16;;;;;;;;;;;21.60;55.00;;;;;;5075164;28;19920;-76
2022/10/14 05:07:42;;;;;;;;;;;21.60;55.00;;;;;;5093519;28;19920;-75
2022/10/14 05:10:09;;;;;;;;;;;21.70;55.10;;;;;;5093417;28;20288;-70
2022/10/14 05:12:35;;;;;;;;;;;21.60;55.00;;;;;;5093427;28;19928;-75
2022/10/14 05:15:01;;;;;;;;;;;21.60;54.90;;;;;;5075225;28;19924;-75
2022/10/14 05:17:26;;;;;;;;;;;21.70;55.00;;;;;;5074967;28;19943;-74
2022/10/14 05:19:52;;;;;;;;;;;21.70;55.00;;;;;;5075572;28;20295;-75
2022/10/14 05:22:17;;;;;;;;;;;21.70;54.90;;;;;;5093128;28;20398;-76
2022/10/14 05:24:43;;;;;;;;;;;21.70;54.90;;;;;;5093179;28;19927;-76
2022/10/14 05:27:08;;;;;;;;;;;21.70;54.80;;;;;;5075135;28;19920;-76
2022/10/14 05:29:34;;;;;;;;;;;21.60;54.80;;;;;;5074899;28;20395;-76
2022/10/14 05:31:59;;;;;;;;;;;21.70;54.80;;;;;;5074804;28;20011;-75
2022/10/14 05:34:25;;;;;;;;;;;21.70;54.70;;;;;;5074804;28;19920;-70
2022/10/14 05:36:50;;;;;;;;;;;21.70;54.70;;;;;;5092834;28;19946;-76
2022/10/14 05:39:16;;;;;;;;;;;21.60;54.70;;;;;;5074785;28;20364;-76
2022/10/14 05:41:41;;;;;;;;;;;21.70;54.70;;;;;;5074601;28;19932;-75
2022/10/14 05:44:09;;;;;;;;;;;21.70;54.70;;;;;;5072791;28;19924;-76
2022/10/14 05:46:35;;;;;;;;;;;21.70;54.60;;;;;;5073564;28;19924;-76
2022/10/14 05:49:04;;;;;;;;;;;21.70;54.60;;;;;;5089727;28;19931;-76
2022/10/14 05:51:31;;;;;;;;;;;21.60;54.80;;;;;;5066502;28;20318;-76
2022/10/14 05:53:57;;;;;;;;;;;21.50;55.10;;;;;;5075275;28;19951;-76
2022/10/14 05:56:22;;;;;;;;;;;21.50;55.20;;;;;;5073260;28;19966;-76
2022/10/14 05:58:48;;;;;;;;;;;21.40;55.20;;;;;;5090620;28;19920;-76
2022/10/14 06:01:13;;;;;;;;;;;21.40;55.30;;;;;;5073061;28;19963;-74
2022/10/14 06:03:39;;;;;;;;;;;21.50;55.40;;;;;;5070870;28;20019;-74
2022/10/14 06:06:04;;;;;;;;;;;21.50;55.40;;;;;;5069109;28;19920;-74
2022/10/14 06:08:30;;;;;;;;;;;21.50;55.60;;;;;;5067323;28;20353;-74
2022/10/14 06:10:56;;;;;;;;;;;21.50;55.50;;;;;;5087757;28;19927;-74
2022/10/14 06:13:21;;;;;;;;;;;21.40;55.40;;;;;;5069217;28;20371;-74
2022/10/14 06:15:47;;;;;;;;;;;21.40;55.30;;;;;;5068011;28;19927;-75
2022/10/14 06:18:12;;;;;;;;;;;21.40;56.00;;;;;;5065163;28;20076;-75
2022/10/14 06:20:38;;;;;;;;;;;21.40;56.10;;;;;;5065609;28;19920;-74
2022/10/14 06:23:04;;;;;;;;;;;21.40;55.20;;;;;;5067388;28;19982;-76
2022/10/14 06:25:29;;;;;;;;;;;21.40;55.20;;;;;;5066843;28;20376;-75
2022/10/14 06:28:00;;;;;;;;;;;21.40;55.10;;;;;;5067055;28;19920;-74
2022/10/14 06:30:26;;;;;;;;;;;21.30;55.20;;;;;;5062012;28;19920;-75
2022/10/14 06:32:52;;;;;;;;;;;21.30;55.40;;;;;;5053200;28;20299;-74
2022/10/14 06:35:18;;;;;;;;;;;21.30;55.40;;;;;;5055343;28;19920;-74
2022/10/14 06:37:44;;;;;;;;;;;21.30;55.40;;;;;;5059496;28;19920;-74
2022/10/14 06:40:09;;;;;;;;;;;21.30;55.50;;;;;;5047423;28;20302;-74
2022/10/14 06:42:35;;;;;;;;;;;21.20;55.40;;;;;;5070426;28;19920;-74
2022/10/14 06:45:00;;;;;;;;;;;21.20;55.70;;;;;;5048662;28;19921;-78
2022/10/14 06:47:26;;;;;;;;;;;21.20;56.30;;;;;;5048054;28;20512;-75
2022/10/14 06:49:52;;;;;;;;;;;21.20;56.20;;;;;;5069456;28;19924;-77
2022/10/14 06:52:17;;;;;;;;;;;21.10;56.30;;;;;;5053071;28;19924;-81
2022/10/14 06:54:43;;;;;;;;;;;21.20;56.50;;;;;;5060980;28;19927;-77
2022/10/14 06:57:09;;;;;;;;;;;21.20;56.50;;;;;;5053305;28;19987;-78
2022/10/14 06:59:34;;;;;;;;;;;21.20;56.60;;;;;;5053863;28;19972;-77
2022/10/14 07:02:00;;;;;;;;;;;21.20;56.60;;;;;;5046719;28;19924;-76
2022/10/14 07:04:25;;;;;;;;;;;21.20;56.90;;;;;;5049894;28;19927;-77
2022/10/14 07:06:51;;;;;;;;;;;21.10;57.10;;;;;;5052419;28;19921;-78
2022/10/14 07:09:16;;;;;;;;;;;21.10;57.20;;;;;;5050373;28;19921;-82
2022/10/14 07:11:42;;;;;;;;;;;21.10;57.40;;;;;;5054162;28;19925;-80
2022/10/14 07:14:08;;;;;;;;;;;21.00;57.50;;;;;;5052508;28;19974;-75
2022/10/14 07:16:33;;;;;;;;;;;21.00;57.40;;;;;;5059275;28;20350;-73
2022/10/14 07:18:59;;;;;;;;;;;21.10;57.30;;;;;;5052856;28;20019;-83
2022/10/14 07:21:24;;;;;;;;;;;21.10;57.10;;;;;;5061452;28;19931;-78
2022/10/14 07:23:50;;;;;;;;;;;21.10;57.30;;;;;;5057986;28;19932;-77
2022/10/14 07:26:16;;;;;;;;;;;21.10;57.00;;;;;;5061438;28;19924;-77
2022/10/14 07:28:41;;;;;;;;;;;21.10;57.20;;;;;;5053169;28;19968;-76
2022/10/14 07:31:07;;;;;;;;;;;21.10;57.30;;;;;;5059218;28;19921;-75
2022/10/14 07:33:34;;;;;;;;;;;21.10;57.50;;;;;;5053235;28;19928;-74
2022/10/14 07:36:01;;;;;;;;;;;21.10;57.70;;;;;;5048758;28;20133;-71
2022/10/14 07:38:26;;;;;;;;;;;21.00;57.60;;;;;;5038764;28;20532;-72
2022/10/14 07:40:56;;;;;;;;;;;21.00;57.40;;;;;;5045336;28;20219;-74
2022/10/14 07:43:21;;;;;;;;;;;21.10;57.30;;;;;;5048594;28;19932;-72
2022/10/14 07:45:49;;;;;;;;;;;21.00;57.30;;;;;;5051924;28;19929;-69
2022/10/14 07:48:15;;;;;;;;;;;21.00;57.40;;;;;;5050431;28;20027;-68
2022/10/14 07:50:40;;;;;;;;;;;21.10;57.40;;;;;;5052268;28;19934;-80
2022/10/14 07:53:06;;;;;;;;;;;21.00;57.40;;;;;;5053608;28;19930;-73
2022/10/14 07:55:31;;;;;;;;;;;21.00;57.60;;;;;;5067070;28;19927;-74
2022/10/14 07:57:57;;;;;;;;;;;21.00;57.70;;;;;;5055137;28;19972;-70
2022/10/14 08:00:22;;;;;;;;;;;21.00;57.60;;;;;;5047054;28;20277;-73
2022/10/14 08:02:48;;;;;;;;;;;21.10;57.70;;;;;;5051626;28;19924;-81
2022/10/14 08:05:13;;;;;;;;;;;21.00;57.80;;;;;;5051709;28;19925;-71
2022/10/14 08:07:39;;;;;;;;;;;21.10;57.70;;;;;;5049362;28;19927;-82
2022/10/14 08:10:04;;;;;;;;;;;21.00;57.70;;;;;;5049649;28;19925;-74
2022/10/14 08:12:30;;;;;;;;;;;21.00;57.90;;;;;;5044854;28;19963;-74
2022/10/14 08:14:56;;;;;;;;;;;21.10;58.20;;;;;;5052044;28;19932;-72
2022/10/14 08:17:22;;;;;;;;;;;21.00;57.90;;;;;;5048706;28;19932;-69
2022/10/14 08:19:48;;;;;;;;;;;21.00;57.90;;;;;;5055461;28;19928;-72
2022/10/14 08:22:14;;;;;;;;;;;21.00;58.00;;;;;;5070556;28;20425;-74
2022/10/14 08:24:39;;;;;;;;;;;21.00;58.10;;;;;;5055207;28;19924;-73
2022/10/14 08:27:06;;;;;;;;;;;21.10;58.30;;;;;;5055872;28;19931;-75
2022/10/14 08:29:32;;;;;;;;;;;21.00;58.10;;;;;;5054878;28;19920;-70
2022/10/14 08:31:58;;;;;;;;;;;21.00;58.20;;;;;;5054474;28;19924;-73
2022/10/14 08:34:23;;;;;;;;;;;21.00;58.00;;;;;;5054654;28;19935;-70
2022/10/14 08:36:50;;;;;;;;;;;21.00;58.00;;;;;;5055794;28;19924;-70
2022/10/14 08:39:16;;;;;;;;;;;21.00;58.30;;;;;;5063446;28;19982;-71
2022/10/14 08:42:02;;;;;;;;;;;21.00;58.10;;;;;;5054889;28;19924;-71
2022/10/14 08:44:34;;;;;;;;;;;20.90;58.30;;;;;;5061500;28;20804;-71
2022/10/14 08:47:01;;;;;;;;;;;21.00;58.40;;;;;;5076348;28;19924;-69
2022/10/14 08:49:31;;;;;;;;;;;21.00;58.50;;;;;;5053967;28;20179;-73
2022/10/14 08:51:59;;;;;;;;;;;20.90;58.50;;;;;;5071193;28;19920;-71
2022/10/14 08:54:30;;;;;;;;;;;20.90;58.40;;;;;;5053110;28;20498;-73
2022/10/14 08:56:55;;;;;;;;;;;20.90;58.40;;;;;;5075328;28;19920;-74
2022/10/14 08:59:21;;;;;;;;;;;20.90;58.30;;;;;;5053606;28;19924;-72
2022/10/14 09:01:50;;;;;;;;;;;20.80;58.20;;;;;;5055911;28;19925;-74
2022/10/14 09:04:16;;;;;;;;;;;20.90;58.50;;;;;;5067469;28;19924;-76
2022/10/14 09:06:44;;;;;;;;;;;20.90;58.80;;;;;;5054525;28;19926;-67
2022/10/14 09:11:55;;;;;;;;;;;20.80;58.80;;;;;;5147514;27;20278;-79
2022/10/14 09:14:23;;;;;;;;;;;20.90;59.00;;;;;;5141690;27;19967;-72
2022/10/14 09:16:51;;;;;;;;;;;20.90;59.10;;;;;;5130425;27;19919;-76
2022/10/14 09:19:20;;;;;;;;;;;20.90;59.30;;;;;;5141443;27;19926;-78
2022/10/14 09:21:49;;;;;;;;;;;20.90;60.10;;;;;;5144096;27;19923;-74
2022/10/14 09:24:18;;;;;;;;;;;20.90;60.00;;;;;;5141087;27;19923;-71
2022/10/14 09:26:45;;;;;;;;;;;20.90;59.90;;;;;;5147261;27;20021;-72
2022/10/14 09:29:18;;;;;;;;;;;20.90;60.10;;;;;;5148631;27;19923;-70
2022/10/14 09:31:44;;;;;;;;;;;20.90;60.00;;;;;;5144745;27;19934;-70
2022/10/14 09:34:15;;;;;;;;;;;20.90;60.20;;;;;;5146346;27;19923;-74
2022/10/14 09:36:40;;;;;;;;;;;20.90;60.30;;;;;;5144734;27;19919;-70
2022/10/14 09:39:10;;;;;;;;;;;20.90;60.60;;;;;;5141149;27;19919;-72
2022/10/14 09:41:36;;;;;;;;;;;20.90;60.60;;;;;;5144268;27;19948;-70
2022/10/14 09:46:58;;;;;;;;;;;20.90;60.80;;;;;;5088502;27;19920;-68
2022/10/14 09:49:30;;;;;;;;;;;20.90;60.50;;;;;;5071618;28;20361;-69
2022/10/14 09:51:56;;;;;;;;;;;20.90;60.80;;;;;;5070102;28;19974;-70
2022/10/14 09:54:23;;;;;;;;;;;20.90;61.40;;;;;;5074727;28;20338;-67
2022/10/14 09:56:49;;;;;;;;;;;20.90;60.90;;;;;;5052326;28;19920;-70
2022/10/14 09:59:15;;;;;;;;;;;20.90;60.90;;;;;;5057356;28;19920;-67
2022/10/14 10:01:48;;;;;;;;;;;20.80;60.60;;;;;;5055155;28;19921;-75
2022/10/14 10:04:33;;;;;;;;;;;20.90;60.70;;;;;;5059509;28;20362;-67
2022/10/14 10:07:00;;;;;;;;;;;20.90;60.70;;;;;;5073981;28;20305;-71
2022/10/14 10:09:26;;;;;;;;;;;20.90;60.90;;;;;;5076685;28;19932;-70
2022/10/14 10:11:51;;;;;;;;;;;20.90;61.00;;;;;;5052186;28;19920;-68
2022/10/14 10:14:25;;;;;;;;;;;20.90;60.80;;;;;;5056431;28;20327;-70
2022/10/14 10:19:50;;;;;;;;;;;20.80;61.00;;;;;;5064702;28;19920;-70
2022/10/14 10:22:21;;;;;;;;;;;20.90;61.30;;;;;;5061673;28;19928;-71
2022/10/14 10:24:51;;;;;;;;;;;20.90;61.10;;;;;;5059659;28;19932;-71
2022/10/14 10:27:19;;;;;;;;;;;20.90;60.90;;;;;;5058338;28;20015;-72
2022/10/14 10:29:44;;;;;;;;;;;20.90;61.10;;;;;;5054080;28;20258;-72
2022/10/14 10:32:13;;;;;;;;;;;20.80;61.00;;;;;;5061238;28;19929;-72
2022/10/14 10:37:25;;;;;;;;;;;20.90;61.20;;;;;;5083766;27;19920;-80
2022/10/14 10:40:07;;;;;;;;;;;20.80;61.20;;;;;;5101780;28;20030;-75
2022/10/14 10:42:38;;;;;;;;;;;20.80;61.00;;;;;;5098004;28;19921;-75
2022/10/14 10:45:15;;;;;;;;;;;20.80;61.00;;;;;;5071346;28;20347;-74
2022/10/14 10:47:51;;;;;;;;;;;20.80;61.10;;;;;;5059051;28;20440;-68
2022/10/14 11:13:05;;;;;;;;;;;20.80;61.60;;;;;;5056239;28;20378;-72
2022/10/14 11:18:33;;;;;;;;;;;20.80;61.70;;;;;;5088903;27;19931;-72
2022/10/14 11:21:04;;;;;;;;;;;20.80;61.60;;;;;;5054984;28;19933;-68
2022/10/14 11:26:22;;;;;;;;;;;20.80;61.70;;;;;;5072025;28;19917;-67
2022/10/14 11:31:39;;;;;;;;;;;20.80;62.40;;;;;;5059055;28;19949;-71
2022/10/14 11:34:17;;;;;;;;;;;20.80;62.20;;;;;;5052612;28;20316;-68
2022/10/14 11:39:30;;;;;;;;;;;20.80;62.70;;;;;;5041072;27;4013298;-68
2022/10/14 11:42:00;;;;;;;;;;;20.80;62.70;;;;;;5162939;27;20021;-68
2022/10/14 11:44:42;;;;;;;;;;;20.90;62.50;;;;;;5155130;27;19967;-68
2022/10/14 11:47:19;;;;;;;;;;;20.80;62.50;;;;;;5153579;27;19923;-70
2022/10/14 11:49:47;;;;;;;;;;;20.80;62.50;;;;;;5155069;27;19933;-74
2022/10/14 11:52:16;;;;;;;;;;;20.80;62.60;;;;;;5167101;27;19954;-73
2022/10/14 11:54:45;;;;;;;;;;;20.80;62.70;;;;;;5149334;27;20007;-73
2022/10/14 11:57:18;;;;;;;;;;;20.80;62.70;;;;;;5152932;27;19923;-75
2022/10/14 11:59:48;;;;;;;;;;;20.80;62.80;;;;;;5152767;27;20008;-77
2022/10/14 12:04:57;;;;;;;;;;;20.80;63.30;;;;;;5099042;27;19916;-79
2022/10/14 12:07:25;;;;;;;;;;;20.90;63.50;;;;;;5069028;28;19931;-80
2022/10/14 12:09:55;;;;;;;;;;;20.80;63.90;;;;;;5071875;28;19920;-79
2022/10/14 12:12:22;;;;;;;;;;;20.00;63.10;;;;;;5070126;28;19955;-76
2022/10/14 12:14:50;;;;;;;;;;;20.80;63.60;;;;;;5069146;28;20078;-82
2022/10/14 12:20:16;;;;;;;;;;;20.90;63.70;;;;;;5110027;27;1866273;-86
2022/10/14 12:22:42;;;;;;;;;;;20.80;63.70;;;;;;5152673;27;20297;-77
2022/10/14 12:25:12;;;;;;;;;;;20.80;63.60;;;;;;5154442;27;19919;-78
2022/10/14 12:27:38;;;;;;;;;;;20.80;63.40;;;;;;5148731;27;19919;-80
2022/10/14 12:30:03;;;;;;;;;;;20.90;63.90;;;;;;5153123;27;19972;-73
2022/10/14 12:32:30;;;;;;;;;;;20.80;63.60;;;;;;5145288;27;20398;-76
2022/10/14 12:34:56;;;;;;;;;;;20.80;63.60;;;;;;5163774;27;19927;-69
2022/10/14 12:45:28;;;;;;;;;;;20.80;64.00;;;;;;5091967;27;19917;-70
2022/10/14 12:48:14;;;;;;;;;;;20.80;63.90;;;;;;5126904;27;20390;-72
2022/10/14 12:50:41;;;;;;;;;;;20.80;64.00;;;;;;5094437;28;19924;-73
2022/10/14 12:53:14;;;;;;;;;;;20.80;64.00;;;;;;5091214;28;19969;-73
2022/10/14 12:55:49;;;;;;;;;;;20.80;63.70;;;;;;5089985;28;19947;-67
2022/10/14 12:58:24;;;;;;;;;;;20.80;63.90;;;;;;5090198;28;19920;-73
2022/10/14 13:00:54;;;;;;;;;;;20.80;64.00;;;;;;5090459;28;19921;-73
2022/10/14 13:03:22;;;;;;;;;;;20.80;63.60;;;;;;5094401;28;19929;-71
2022/10/14 13:05:48;;;;;;;;;;;20.80;63.60;;;;;;5088690;28;19928;-66
2022/10/14 13:19:00;;;;;;;;;;;20.80;64.40;;;;;;5118924;27;1861129;-71
2022/10/14 13:24:15;;;;;;;;;;;20.80;64.60;;;;;;5127602;27;19915;-70
2022/10/14 13:26:57;;;;;;;;;;;20.70;64.60;;;;;;5122866;28;20018;-70
2022/10/14 13:29:42;;;;;;;;;;;20.80;64.80;;;;;;5125828;28;19959;-69
2022/10/14 13:37:42;;;;;;;;;;;20.80;64.80;;;;;;5086115;28;20536;-75
2022/10/14 13:42:55;;;;;;;;;;;20.80;65.00;;;;;;5113743;27;19916;-74
2022/10/14 13:45:29;;;;;;;;;;;20.80;64.90;;;;;;5088445;28;20011;-74
2022/10/14 13:47:55;;;;;;;;;;;20.80;64.90;;;;;;5104100;28;19947;-74
2022/10/14 13:50:22;;;;;;;;;;;20.80;64.70;;;;;;5106049;28;19959;-74
2022/10/14 13:52:57;;;;;;;;;;;20.70;64.60;;;;;;5106359;28;19930;-75
2022/10/14 13:55:23;;;;;;;;;;;20.80;64.60;;;;;;5141900;27;20567;-75
2022/10/14 13:58:09;;;;;;;;;;;20.80;64.50;;;;;;5109602;28;19965;-75
2022/10/14 14:00:36;;;;;;;;;;;20.70;64.40;;;;;;5103944;28;19998;-82
2022/10/14 14:03:09;;;;;;;;;;;20.70;64.50;;;;;;5105350;28;19927;-78
2022/10/14 14:05:35;;;;;;;;;;;20.60;64.40;;;;;;5106006;28;19924;-84
2022/10/14 14:08:02;;;;;;;;;;;20.70;64.40;;;;;;5109036;28;19927;-75
2022/10/14 14:10:27;;;;;;;;;;;20.70;64.50;;;;;;5102852;28;19974;-74
2022/10/14 14:12:53;;;;;;;;;;;20.70;64.50;;;;;;5105565;28;19943;-71
2022/10/14 14:15:23;;;;;;;;;;;20.70;64.50;;;;;;5106588;28;19936;-71
2022/10/14 14:17:48;;;;;;;;;;;20.70;64.40;;;;;;5105382;28;19920;-73
2022/10/14 14:20:20;;;;;;;;;;;20.70;64.50;;;;;;5089522;28;19924;-72
2022/10/14 14:22:46;;;;;;;;;;;20.70;64.30;;;;;;5103074;28;19932;-70
2022/10/14 14:25:18;;;;;;;;;;;20.70;64.70;;;;;;5103391;28;20375;-72
2022/10/14 14:27:48;;;;;;;;;;;20.80;65.00;;;;;;5105716;28;20291;-76
2022/10/14 14:30:33;;;;;;;;;;;20.70;64.90;;;;;;5132139;27;19924;-71
2022/10/14 14:33:01;;;;;;;;;;;20.70;64.70;;;;;;5105461;28;19915;-71
2022/10/14 14:35:26;;;;;;;;;;;20.80;64.80;;;;;;5105935;28;19916;-72
2022/10/14 14:37:52;;;;;;;;;;;20.70;65.20;;;;;;5104794;28;19939;-74
2022/10/14 14:40:20;;;;;;;;;;;20.80;64.90;;;;;;5105188;28;19927;-73
2022/10/14 14:42:47;;;;;;;;;;;20.70;64.70;;;;;;5102521;28;19924;-73
2022/10/14 14:45:16;;;;;;;;;;;20.10;64.40;;;;;;5103916;28;19957;-72
2022/10/14 14:47:42;;;;;;;;;;;20.70;64.90;;;;;;5105050;28;19920;-76
2022/10/14 14:50:13;;;;;;;;;;;20.70;64.90;;;;;;5105617;28;19928;-77
2022/10/14 14:52:41;;;;;;;;;;;20.80;64.90;;;;;;5091904;28;19924;-76
2022/10/14 14:55:26;;;;;;;;;;;20.70;64.80;;;;;;5092130;28;19920;-73
2022/10/14 14:57:56;;;;;;;;;;;20.70;64.80;;;;;;5090946;28;19920;-76
2022/10/14 15:00:22;;;;;;;;;;;20.70;64.70;;;;;;5091894;28;20126;-77
2022/10/14 15:02:49;;;;;;;;;;;20.70;64.70;;;;;;5090686;28;20174;-76
2022/10/14 15:05:18;;;;;;;;;;;20.60;64.60;;;;;;5092093;28;19931;-76
2022/10/14 15:07:44;;;;;;;;;;;20.60;64.60;;;;;;5091232;28;19924;-76
2022/10/14 15:10:20;;;;;;;;;;;20.60;64.50;;;;;;5092400;28;19920;-75
2022/10/14 15:12:50;;;;;;;;;;;20.60;64.50;;;;;;5092690;28;20268;-76
2022/10/14 15:21:12;;;;;;;;;;;20.60;64.40;;;;;;5108764;27;20185;-75
2022/10/14 15:23:40;;;;;;;;;;;20.50;64.30;;;;;;5071024;28;19924;-74
2022/10/14 15:26:25;;;;;;;;;;;20.50;64.20;;;;;;5069850;28;19921;-75
2022/10/14 15:29:11;;;;;;;;;;;20.50;64.20;;;;;;5070545;28;20273;-75
2022/10/14 15:31:37;;;;;;;;;;;20.60;64.20;;;;;;5070952;28;20265;-75
2022/10/14 15:34:03;;;;;;;;;;;20.60;64.20;;;;;;5087580;28;20015;-75
2022/10/14 15:36:30;;;;;;;;;;;20.50;64.10;;;;;;5071069;28;20015;-76
2022/10/14 15:38:57;;;;;;;;;;;20.50;64.10;;;;;;5087945;28;20019;-76
2022/10/14 15:41:23;;;;;;;;;;;20.50;64.10;;;;;;5070656;28;19920;-75
2022/10/14 15:43:48;;;;;;;;;;;20.50;64.10;;;;;;5087960;28;19927;-75
2022/10/14 15:49:01;;;;;;;;;;;20.50;64.00;;;;;;5070951;28;20314;-76
2022/10/14 15:51:29;;;;;;;;;;;20.50;64.00;;;;;;5070959;28;20003;-75
2022/10/14 15:53:55;;;;;;;;;;;20.40;63.90;;;;;;5087878;28;20561;-75
2022/10/14 15:56:21;;;;;;;;;;;20.40;63.90;;;;;;5071038;28;20011;-75
2022/10/14 15:58:46;;;;;;;;;;;20.40;63.90;;;;;;5088783;28;20382;-75
2022/10/14 16:01:15;;;;;;;;;;;20.50;64.00;;;;;;5070668;28;19927;-75
2022/10/14 16:03:41;;;;;;;;;;;20.40;63.80;;;;;;5088922;28;19928;-75
2022/10/14 16:06:07;;;;;;;;;;;20.40;63.80;;;;;;5070308;28;19920;-73